Chilliwack Airport


Codes: CYCW/YCW
Name: Chilliwack Airport
City: Chilliwack
Country: Canada
Elevation: 32 ft.
Wikipedia:

Photos at Chilliwack Airport


   Photos courtesy of SpottingLog. You can add your own sightings and photos by signing up for a free trial today.



No photos found.

Weather at Chilliwack Airport


Time (UTC)DescriptionTempratureWindCloud coverageVisibilityPressureHumidity
25-Jun-2024 12:00Few Clouds12°C4 mph, NE11%10000m1014hPa84%
25-Jun-2024 15:00Scattered Clouds14°C4 mph, NE27%10000m1015hPa74%
25-Jun-2024 18:00Broken Clouds21°C4 mph, N56%10000m1014hPa50%
25-Jun-2024 21:00Overcast Clouds28°C4 mph, NW96%10000m1013hPa27%
26-Jun-2024 00:00Overcast Clouds27°C4 mph, NW96%10000m1012hPa38%
26-Jun-2024 03:00Overcast Clouds22°C2 mph, SW87%10000m1011hPa75%
26-Jun-2024 06:00Broken Clouds16°C2 mph, S57%10000m1012hPa89%
26-Jun-2024 09:00Overcast Clouds15°C2 mph, E99%10000m1011hPa89%
26-Jun-2024 12:00Overcast Clouds15°C2 mph, E99%10000m1010hPa85%
26-Jun-2024 15:00Overcast Clouds18°C2 mph, W100%10000m1010hPa73%
26-Jun-2024 18:00Overcast Clouds20°C7 mph, SW100%10000m1011hPa57%
26-Jun-2024 21:00Light Rain15°C4 mph, W100%10000m1014hPa89%
27-Jun-2024 00:00Light Rain14°C2 mph, SW100%856m1015hPa100%
27-Jun-2024 03:00Light Rain13°C2 mph, S100%2327m1014hPa99%
27-Jun-2024 06:00Light Rain13°C2 mph, SW100%9067m1014hPa99%
27-Jun-2024 09:00Overcast Clouds13°C2 mph, SW98%10000m1013hPa98%
27-Jun-2024 12:00Light Rain13°C2 mph, SW99%1739m1013hPa100%
27-Jun-2024 15:00Light Rain13°C4 mph, N100%0m1014hPa100%
27-Jun-2024 18:00Light Rain13°C4 mph, SW100%6198m1015hPa99%
27-Jun-2024 21:00Moderate Rain13°C4 mph, SW100%3904m1016hPa99%
28-Jun-2024 00:00Light Rain14°C0 mph, SW100%10000m1016hPa97%
28-Jun-2024 03:00Overcast Clouds14°C2 mph, NE100%10000m1017hPa97%
28-Jun-2024 06:00Overcast Clouds13°C2 mph, NE94%10000m1018hPa96%
28-Jun-2024 09:00Broken Clouds12°C2 mph, NE79%10000m1017hPa95%
28-Jun-2024 12:00Scattered Clouds11°C2 mph, E48%10000m1018hPa96%
28-Jun-2024 15:00Overcast Clouds15°C2 mph, NW98%10000m1018hPa86%
28-Jun-2024 18:00Broken Clouds21°C2 mph, W82%10000m1017hPa57%
28-Jun-2024 21:00Broken Clouds24°C4 mph, W82%10000m1015hPa48%
29-Jun-2024 00:00Overcast Clouds23°C4 mph, SW91%10000m1015hPa53%
29-Jun-2024 03:00Overcast Clouds19°C2 mph, SW100%10000m1015hPa79%
29-Jun-2024 06:00Overcast Clouds15°C2 mph, SE100%10000m1015hPa90%
29-Jun-2024 09:00Overcast Clouds15°C2 mph, NE100%10000m1015hPa90%
29-Jun-2024 12:00Overcast Clouds15°C2 mph, NE100%10000m1015hPa88%
29-Jun-2024 15:00Overcast Clouds17°C0 mph, NW100%10000m1015hPa83%
29-Jun-2024 18:00Overcast Clouds18°C2 mph, NW100%10000m1015hPa75%
29-Jun-2024 21:00Overcast Clouds19°C4 mph, W100%10000m1016hPa71%
30-Jun-2024 00:00Light Rain18°C2 mph, SW100%10000m1016hPa78%
30-Jun-2024 03:00Light Rain15°C2 mph, E100%10000m1016hPa96%
30-Jun-2024 06:00Overcast Clouds15°C0 mph, NE100%10000m1016hPa97%
30-Jun-2024 09:00Overcast Clouds15°C0 mph, E100%10000m1015hPa96%